createdAt,value
2018-07-11T00:00:53.993Z,99.90
2018-07-11T00:03:32.925Z,99.90
2018-07-11T00:06:01.613Z,99.90
2018-07-11T00:08:30.167Z,99.90
2018-07-11T00:10:58.728Z,99.90
2018-07-11T00:13:27.197Z,99.90
2018-07-11T00:15:55.691Z,99.90
2018-07-11T00:18:24.195Z,99.90
2018-07-11T00:20:52.802Z,99.90
2018-07-11T00:23:21.368Z,99.90
2018-07-11T00:25:50.576Z,99.90
2018-07-11T00:28:19.165Z,99.90
2018-07-11T00:30:48.051Z,99.90
2018-07-11T00:33:17.670Z,99.90
2018-07-11T00:35:47.436Z,99.90
2018-07-11T00:38:18.142Z,99.90
2018-07-11T00:40:46.682Z,99.90
2018-07-11T00:48:15.171Z,99.90
2018-07-11T00:53:12.337Z,99.90
2018-07-11T00:55:40.905Z,99.90
2018-07-11T00:58:45.004Z,99.90
2018-07-11T01:01:16.259Z,99.90
2018-07-11T01:03:49.619Z,99.90
2018-07-11T01:06:19.339Z,99.90
2018-07-11T01:08:50.873Z,99.90
2018-07-11T01:11:19.458Z,99.90
2018-07-11T01:13:48.859Z,99.90
2018-07-11T01:18:57.630Z,99.90
2018-07-11T01:21:26.208Z,99.90
2018-07-11T01:23:54.749Z,99.90
2018-07-11T01:26:27.326Z,99.90
2018-07-11T01:28:56.097Z,99.90
2018-07-11T01:31:25.112Z,99.90
2018-07-11T01:33:54.009Z,99.90
2018-07-11T01:36:22.736Z,99.90
2018-07-11T01:38:51.658Z,99.90
2018-07-11T01:41:20.175Z,99.90
2018-07-11T01:43:48.678Z,99.90
2018-07-11T01:46:17.866Z,99.90
2018-07-11T01:48:46.547Z,99.90
2018-07-11T01:58:50.665Z,99.90
2018-07-11T02:01:19.214Z,99.90
2018-07-11T02:03:47.761Z,99.90
2018-07-11T02:06:17.794Z,99.90
2018-07-11T02:08:48.908Z,99.90
2018-07-11T02:11:17.425Z,99.90
2018-07-11T02:13:46.011Z,99.90
2018-07-11T02:16:14.649Z,99.90
2018-07-11T02:18:43.154Z,99.90
2018-07-11T02:21:11.788Z,99.90
2018-07-11T02:23:40.357Z,99.90
2018-07-11T02:26:09.124Z,99.90
2018-07-11T02:28:38.186Z,99.90
2018-07-11T02:31:06.740Z,99.90
2018-07-11T02:36:03.488Z,99.90
2018-07-11T02:38:31.986Z,99.90
2018-07-11T02:41:00.808Z,99.90
2018-07-11T02:45:57.471Z,99.90
2018-07-11T02:48:25.950Z,99.90
2018-07-11T02:50:55.125Z,99.90
2018-07-11T02:53:24.607Z,99.90
2018-07-11T02:55:53.702Z,99.90
2018-07-11T02:58:22.386Z,99.90
2018-07-11T03:00:50.988Z,99.90
2018-07-11T03:03:19.575Z,99.90
2018-07-11T03:05:48.127Z,99.90
2018-07-11T03:08:18.169Z,99.90
2018-07-11T03:10:47.308Z,99.90
2018-07-11T03:13:20.371Z,99.90
2018-07-11T03:15:48.843Z,99.90
2018-07-11T03:18:17.440Z,99.90
2018-07-11T03:20:45.958Z,99.90
2018-07-11T03:31:51.602Z,99.90
2018-07-11T03:34:20.102Z,99.90
2018-07-11T03:39:16.848Z,99.90
2018-07-11T03:41:45.678Z,99.90
2018-07-11T03:52:01.672Z,99.90
2018-07-11T03:54:30.175Z,99.90
2018-07-11T03:56:58.633Z,99.90
2018-07-11T03:59:27.146Z,99.90
2018-07-11T04:01:55.618Z,99.90
2018-07-11T04:04:24.096Z,99.90
2018-07-11T04:09:20.885Z,99.90
2018-07-11T04:11:49.443Z,99.90
2018-07-11T04:14:19.302Z,99.90
2018-07-11T04:19:16.643Z,99.90
2018-07-11T04:21:45.146Z,99.90
2018-07-11T04:29:11.002Z,99.90
2018-07-11T04:31:39.554Z,99.90
2018-07-11T04:34:08.082Z,99.90
2018-07-11T04:36:36.915Z,99.90
2018-07-11T04:39:05.637Z,99.90
2018-07-11T04:41:34.208Z,99.90
2018-07-11T04:44:03.222Z,99.90
2018-07-11T04:46:34.051Z,99.90
2018-07-11T04:49:02.673Z,99.90
2018-07-11T04:51:31.265Z,99.90
2018-07-11T04:54:00.325Z,99.90
2018-07-11T04:56:29.361Z,99.90
2018-07-11T04:58:58.006Z,99.90
2018-07-11T05:01:26.507Z,99.90
2018-07-11T05:03:55.331Z,99.90
2018-07-11T05:06:23.886Z,99.90
2018-07-11T05:11:20.557Z,99.90
2018-07-11T05:13:49.121Z,99.90
2018-07-11T05:18:46.091Z,99.90
2018-07-11T05:27:54.123Z,99.90
2018-07-11T05:30:22.606Z,99.90
2018-07-11T05:32:51.111Z,99.90
2018-07-11T05:35:19.657Z,99.90
2018-07-11T05:37:48.202Z,99.90
2018-07-11T05:40:24.023Z,99.90
2018-07-11T05:42:52.545Z,99.90
2018-07-11T05:45:21.741Z,99.90
2018-07-11T05:47:50.480Z,99.90
2018-07-11T05:50:19.564Z,99.90
2018-07-11T05:52:48.119Z,99.90
2018-07-11T05:55:18.784Z,99.90
2018-07-11T05:57:47.273Z,99.90
2018-07-11T06:10:48.285Z,99.90
2018-07-11T06:13:17.547Z,99.90
2018-07-11T06:15:46.099Z,99.90
2018-07-11T06:18:16.427Z,99.90
2018-07-11T06:20:44.911Z,99.90
2018-07-11T06:23:13.567Z,99.90
2018-07-11T06:25:42.067Z,99.90
2018-07-11T06:28:10.579Z,99.90
2018-07-11T06:30:39.695Z,99.90
2018-07-11T06:33:08.160Z,99.90
2018-07-11T06:35:36.663Z,99.90
2018-07-11T06:38:05.251Z,98.10
2018-07-11T06:40:33.762Z,96.10
2018-07-11T06:43:02.267Z,93.60
2018-07-11T06:45:31.215Z,92.50
2018-07-11T06:47:59.804Z,93.00
2018-07-11T06:50:28.171Z,89.40
2018-07-11T06:52:57.446Z,84.30
2018-07-11T06:55:25.948Z,79.80
2018-07-11T07:00:22.711Z,68.60
2018-07-11T07:02:51.183Z,64.10
2018-07-11T07:05:20.916Z,60.60
2018-07-11T07:07:49.442Z,55.50
2018-07-11T07:10:17.916Z,56.00
2018-07-11T07:12:46.384Z,50.90
2018-07-11T07:23:56.682Z,52.50
2018-07-11T07:26:25.159Z,54.90
2018-07-11T07:28:53.727Z,64.50
2018-07-11T07:31:22.227Z,59.80
2018-07-11T07:33:50.721Z,60.10
2018-07-11T07:36:19.187Z,59.00
2018-07-11T07:38:47.703Z,59.00
2018-07-11T07:41:18.107Z,58.10
2018-07-11T07:43:46.655Z,60.20
2018-07-11T07:46:17.666Z,60.90
2018-07-11T07:48:46.434Z,62.70
2018-07-11T07:59:11.711Z,61.20
2018-07-11T08:01:40.480Z,59.60
2018-07-11T08:04:09.471Z,60.90
2018-07-11T08:06:38.267Z,57.60
2018-07-11T08:09:06.735Z,53.20
2018-07-11T08:11:35.324Z,48.70
2018-07-11T08:14:08.676Z,46.00
2018-07-11T08:16:37.185Z,43.60
2018-07-11T08:19:05.939Z,39.60
2018-07-11T08:21:34.729Z,38.40
2018-07-11T08:24:14.421Z,35.60
2018-07-11T08:26:55.119Z,35.60
2018-07-11T08:29:38.477Z,35.10
2018-07-11T08:34:25.870Z,37.90
2018-07-11T08:37:11.146Z,38.10
2018-07-11T08:40:20.678Z,38.50
2018-07-11T08:43:30.144Z,38.40
2018-07-11T08:46:09.159Z,38.80
2018-07-11T08:49:50.992Z,43.30
2018-07-11T08:52:28.997Z,47.70
2018-07-11T08:55:46.071Z,44.10
2018-07-11T09:03:57.818Z,34.20
2018-07-11T09:08:44.835Z,38.50
2018-07-11T09:11:40.942Z,39.40
2018-07-11T09:14:23.324Z,46.00
2018-07-11T09:17:14.155Z,47.50
2018-07-11T09:20:06.803Z,49.80
2018-07-11T09:22:52.432Z,46.30
2018-07-11T09:25:23.067Z,46.00
2018-07-11T09:27:51.538Z,47.70
2018-07-11T09:30:20.058Z,45.80
2018-07-11T09:32:48.972Z,46.30
2018-07-11T09:35:17.507Z,45.90
2018-07-11T09:37:46.029Z,47.50
2018-07-11T09:47:30.462Z,48.40
2018-07-11T09:52:27.823Z,50.80
2018-07-11T09:54:56.406Z,50.10
2018-07-11T09:57:25.591Z,51.00
2018-07-11T09:59:54.143Z,50.70
2018-07-11T10:02:22.692Z,50.30
2018-07-11T10:04:51.847Z,51.10
2018-07-11T10:07:20.412Z,51.80
2018-07-11T10:09:49.073Z,48.90
2018-07-11T10:12:17.625Z,47.80
2018-07-11T10:14:46.108Z,48.90
2018-07-11T10:27:45.571Z,48.20
2018-07-11T10:30:15.510Z,46.70
2018-07-11T10:32:44.259Z,49.30
2018-07-11T10:35:12.954Z,51.20
2018-07-11T10:37:41.644Z,51.60
2018-07-11T10:40:10.216Z,53.10
2018-07-11T10:42:39.065Z,53.50
2018-07-11T10:45:08.637Z,54.80
2018-07-11T10:47:37.181Z,55.10
2018-07-11T10:50:07.283Z,54.60
2018-07-11T10:52:36.104Z,55.10
2018-07-11T10:55:05.835Z,54.10
2018-07-11T10:57:34.344Z,52.20
2018-07-11T11:00:02.937Z,53.80
2018-07-11T11:02:31.496Z,53.10
2018-07-11T11:05:00.044Z,52.60
2018-07-11T11:07:28.611Z,50.70
2018-07-11T11:09:57.188Z,53.40
2018-07-11T11:12:26.301Z,53.70
2018-07-11T11:14:54.883Z,53.30
2018-07-11T11:17:23.554Z,52.00
2018-07-11T11:19:52.043Z,53.80
2018-07-11T11:22:20.559Z,53.50
2018-07-11T11:24:49.197Z,54.90
2018-07-11T11:27:17.905Z,55.80
2018-07-11T11:29:47.350Z,57.20
2018-07-11T11:38:22.855Z,60.30
2018-07-11T11:40:51.576Z,66.50
2018-07-11T11:43:20.159Z,75.50
2018-07-11T11:45:48.714Z,76.80
2018-07-11T11:48:17.911Z,75.10
2018-07-11T11:50:47.324Z,79.70
2018-07-11T12:03:30.452Z,83.80
2018-07-11T12:05:59.034Z,86.10
2018-07-11T12:08:27.886Z,82.70
2018-07-11T12:10:56.446Z,82.40
2018-07-11T12:13:28.278Z,79.10
2018-07-11T12:15:57.061Z,79.20
2018-07-11T12:18:26.227Z,78.50
2018-07-11T12:20:57.126Z,79.00
2018-07-11T12:23:26.064Z,71.50
2018-07-11T12:26:04.978Z,75.40
2018-07-11T12:28:33.677Z,74.10
2018-07-11T12:31:02.482Z,73.30
2018-07-11T12:33:31.176Z,69.80
2018-07-11T12:35:59.791Z,71.20
2018-07-11T12:38:29.262Z,70.40
2018-07-11T12:40:57.751Z,70.80
2018-07-11T12:43:27.503Z,66.00
2018-07-11T12:45:57.110Z,67.90
2018-07-11T12:48:31.283Z,65.40
2018-07-11T12:51:00.547Z,65.90
2018-07-11T12:53:29.732Z,66.40
2018-07-11T12:55:58.530Z,63.90
2018-07-11T12:58:27.663Z,62.70
2018-07-11T13:00:57.084Z,61.70
2018-07-11T13:03:26.548Z,62.60
2018-07-11T13:05:55.258Z,61.00
2018-07-11T13:08:23.900Z,62.10
2018-07-11T13:10:52.475Z,60.90
2018-07-11T13:13:22.083Z,59.10
2018-07-11T13:15:51.331Z,58.60
2018-07-11T13:18:19.872Z,58.90
2018-07-11T13:20:48.476Z,59.40
2018-07-11T13:23:17.407Z,59.50
2018-07-11T13:25:46.150Z,56.80
2018-07-11T13:42:23.958Z,56.30
2018-07-11T13:44:53.299Z,57.90
2018-07-11T13:47:27.589Z,58.90
2018-07-11T13:49:57.289Z,59.10
2018-07-11T13:52:26.428Z,58.90
2018-07-11T13:54:55.095Z,57.20
2018-07-11T13:57:23.744Z,58.00
2018-07-11T13:59:53.584Z,57.10
2018-07-11T14:02:22.793Z,56.70
2018-07-11T14:04:51.315Z,55.80
2018-07-11T14:07:21.353Z,56.20
2018-07-11T14:09:50.085Z,56.30
2018-07-11T14:12:18.594Z,57.50
2018-07-11T14:14:47.186Z,57.10
2018-07-11T14:26:58.002Z,57.00
2018-07-11T14:29:29.341Z,58.00
2018-07-11T14:31:58.367Z,56.40
2018-07-11T14:34:28.014Z,56.90
2018-07-11T14:36:58.067Z,56.00
2018-07-11T14:39:26.868Z,56.30
2018-07-11T14:41:55.679Z,56.70
2018-07-11T14:44:24.523Z,56.50
2018-07-11T14:46:53.150Z,57.90
2018-07-11T14:49:22.120Z,58.60
2018-07-11T14:51:50.839Z,59.00
2018-07-11T14:54:20.289Z,60.50
2018-07-11T14:56:49.153Z,60.50
2018-07-11T14:59:17.755Z,58.80
2018-07-11T15:01:46.291Z,57.60
2018-07-11T15:13:00.808Z,58.90
2018-07-11T15:15:30.543Z,60.30
2018-07-11T15:17:59.910Z,62.80
2018-07-11T15:20:28.811Z,61.30
2018-07-11T15:22:57.524Z,62.30
2018-07-11T15:25:26.232Z,64.40
2018-07-11T15:27:55.905Z,64.60
2018-07-11T15:30:24.598Z,65.90
2018-07-11T15:32:53.176Z,62.60
2018-07-11T15:35:21.918Z,62.90
2018-07-11T15:37:51.976Z,61.80
2018-07-11T15:40:21.471Z,59.60
2018-07-11T15:42:50.144Z,60.10
2018-07-11T15:45:18.799Z,64.50
2018-07-11T15:47:47.798Z,63.60
2018-07-11T15:50:17.534Z,63.20
2018-07-11T15:52:46.112Z,63.70
2018-07-11T15:55:16.387Z,59.20
2018-07-11T15:57:51.262Z,60.40
2018-07-11T16:00:22.680Z,59.80
2018-07-11T16:02:54.272Z,59.90
2018-07-11T16:05:23.733Z,62.80
2018-07-11T16:07:53.028Z,61.20
2018-07-11T16:10:28.748Z,61.00
2018-07-11T16:12:57.301Z,60.70
2018-07-11T16:15:25.861Z,60.90
2018-07-11T16:17:54.772Z,61.40
2018-07-11T16:20:23.271Z,59.80
2018-07-11T16:22:51.831Z,59.00
2018-07-11T16:25:21.250Z,58.70
2018-07-11T16:27:50.103Z,57.60
2018-07-11T16:30:19.058Z,58.50
2018-07-11T16:32:48.310Z,58.70
2018-07-11T16:35:17.542Z,58.80
2018-07-11T16:37:46.207Z,61.40
2018-07-11T16:51:16.828Z,60.50
2018-07-11T16:53:47.846Z,59.60
2018-07-11T17:03:53.583Z,59.00
2018-07-11T17:06:22.260Z,59.60
2018-07-11T17:08:53.095Z,61.60
2018-07-11T17:11:25.568Z,60.10
2018-07-11T17:13:59.193Z,60.40
2018-07-11T17:16:32.375Z,60.40
2018-07-11T17:19:11.809Z,60.60
2018-07-11T17:21:48.477Z,60.30
2018-07-11T17:24:20.239Z,61.20
2018-07-11T17:29:22.993Z,60.10
2018-07-11T17:31:53.826Z,60.10
2018-07-11T17:36:55.047Z,60.50
2018-07-11T17:39:23.678Z,61.50
2018-07-11T17:41:52.287Z,61.70
2018-07-11T17:44:21.408Z,61.20
2018-07-11T17:46:50.117Z,60.40
2018-07-11T17:49:41.155Z,62.00
2018-07-11T17:52:11.071Z,62.60
2018-07-11T17:55:00.782Z,62.40
2018-07-11T17:57:36.942Z,62.00
2018-07-11T18:00:08.558Z,64.30
2018-07-11T18:03:01.917Z,64.40
2018-07-11T18:05:40.919Z,64.50
2018-07-11T18:08:10.893Z,64.60
2018-07-11T18:10:46.501Z,64.70
2018-07-11T18:21:28.989Z,64.60
2018-07-11T18:24:06.131Z,67.40
2018-07-11T18:29:05.406Z,67.40
2018-07-11T18:31:44.506Z,68.60
2018-07-11T18:34:35.229Z,69.10
2018-07-11T18:37:15.760Z,69.70
2018-07-11T18:39:52.903Z,70.50
2018-07-11T18:42:33.614Z,70.40
2018-07-11T18:47:18.827Z,71.30
2018-07-11T18:49:54.895Z,72.60
2018-07-11T18:52:29.935Z,72.50
2018-07-11T18:55:22.625Z,73.30
2018-07-11T19:00:04.655Z,74.50
2018-07-11T19:03:41.695Z,74.70
2018-07-11T19:06:23.552Z,75.70
2018-07-11T19:09:07.436Z,76.70
2018-07-11T19:11:49.318Z,77.10
2018-07-11T19:14:32.661Z,77.50
2018-07-11T19:19:16.942Z,78.40
2018-07-11T19:23:59.613Z,78.40
2018-07-11T19:27:38.425Z,79.50
2018-07-11T19:30:12.991Z,80.30
2018-07-11T19:32:52.783Z,82.30
2018-07-11T19:37:35.508Z,83.00
2018-07-11T19:40:12.619Z,83.50
2018-07-11T19:43:29.751Z,82.60
2018-07-11T19:46:12.202Z,83.80
2018-07-11T19:49:17.505Z,83.70
2018-07-11T19:54:08.177Z,84.30
2018-07-11T19:56:43.612Z,84.00
2018-07-11T19:59:13.211Z,84.40
2018-07-11T20:01:42.063Z,83.90
2018-07-11T20:04:11.695Z,84.60
2018-07-11T20:06:40.840Z,87.10
2018-07-11T20:09:09.748Z,86.50
2018-07-11T20:11:38.369Z,86.90
2018-07-11T20:16:36.462Z,87.90
2018-07-11T20:19:05.261Z,87.20
2018-07-11T20:21:34.439Z,87.70
2018-07-11T20:24:02.998Z,87.70
2018-07-11T20:26:31.588Z,88.10
2018-07-11T20:29:00.281Z,88.70
2018-07-11T20:31:28.962Z,89.20
2018-07-11T20:33:57.471Z,89.70
2018-07-11T20:36:26.020Z,90.00
2018-07-11T20:38:54.560Z,90.10
2018-07-11T20:41:23.251Z,89.70
2018-07-11T20:43:52.298Z,89.90
2018-07-11T20:46:20.925Z,90.50
2018-07-11T20:51:18.696Z,90.20
2018-07-11T20:53:47.632Z,90.50
2018-07-11T20:56:17.695Z,90.80
2018-07-11T20:58:57.426Z,90.80
2018-07-11T21:01:38.015Z,91.00
2018-07-11T21:06:35.427Z,91.70
2018-07-11T21:12:58.625Z,91.60
2018-07-11T21:15:36.078Z,91.30
2018-07-11T21:19:09.487Z,91.60
2018-07-11T21:21:38.966Z,91.70
2018-07-11T21:24:08.470Z,91.80
2018-07-11T21:26:37.981Z,91.90
2018-07-11T21:31:35.745Z,92.30
2018-07-11T21:34:04.759Z,92.00
2018-07-11T21:36:33.242Z,92.50
2018-07-11T21:39:01.748Z,92.20
2018-07-11T21:41:30.287Z,92.50
2018-07-11T21:43:58.772Z,92.60
2018-07-11T21:46:28.341Z,92.50
2018-07-11T21:51:25.549Z,92.70
2018-07-11T21:53:54.055Z,93.20
2018-07-11T21:56:22.676Z,94.00
2018-07-11T21:58:51.290Z,94.30
2018-07-11T22:01:19.823Z,94.20
2018-07-11T22:03:49.236Z,94.20
2018-07-11T22:06:17.794Z,94.10
2018-07-11T22:08:46.242Z,94.00
2018-07-11T22:21:39.462Z,94.60
2018-07-11T22:24:06.800Z,94.70
2018-07-11T22:26:34.133Z,96.40
2018-07-11T22:29:01.494Z,96.50
2018-07-11T22:31:28.838Z,96.80
2018-07-11T22:33:56.183Z,97.20
2018-07-11T22:36:23.554Z,96.90
2018-07-11T22:38:50.877Z,97.00
2018-07-11T22:41:18.211Z,97.30
2018-07-11T22:43:46.366Z,97.40
2018-07-11T22:46:14.388Z,97.60
2018-07-11T22:48:41.739Z,97.70
2018-07-11T22:51:09.150Z,97.80
2018-07-11T22:53:36.497Z,98.00
2018-07-11T22:56:03.856Z,98.30
2018-07-11T22:58:31.235Z,98.60
2018-07-11T23:00:58.615Z,99.00
2018-07-11T23:03:25.967Z,99.00
2018-07-11T23:05:53.987Z,99.30
2018-07-11T23:08:21.428Z,99.80
2018-07-11T23:10:48.706Z,99.50
2018-07-11T23:13:16.254Z,99.50
2018-07-11T23:15:43.575Z,99.70
2018-07-11T23:18:10.931Z,99.80
2018-07-11T23:25:33.720Z,99.90
2018-07-11T23:28:01.554Z,99.90
2018-07-11T23:30:28.890Z,99.90
2018-07-11T23:32:56.239Z,99.90
2018-07-11T23:35:23.701Z,99.90
2018-07-11T23:37:51.333Z,99.90
2018-07-11T23:40:18.672Z,99.90
2018-07-11T23:42:46.264Z,99.90
2018-07-11T23:45:15.295Z,99.90
2018-07-11T23:47:42.626Z,99.90
2018-07-11T23:50:10.639Z,99.90
2018-07-11T23:52:37.980Z,99.90
2018-07-11T23:55:05.318Z,99.90
2018-07-11T23:57:32.699Z,99.90
